sensor_id;sensor_type;location;lat;lon;timestamp;P1;durP1;ratioP1;P2;durP2;ratioP2
39242;SDS011;29823;47.404;8.566;2022-08-19T00:00:01;32.15;;;20.75;;
39242;SDS011;29823;47.404;8.566;2022-08-19T00:02:30;31.08;;;21.52;;
39242;SDS011;29823;47.404;8.566;2022-08-19T00:04:58;33.22;;;21.00;;
39242;SDS011;29823;47.404;8.566;2022-08-19T00:07:26;29.40;;;19.23;;
39242;SDS011;29823;47.404;8.566;2022-08-19T00:09:55;31.98;;;21.75;;
39242;SDS011;29823;47.404;8.566;2022-08-19T00:12:23;36.40;;;21.67;;
39242;SDS011;29823;47.404;8.566;2022-08-19T00:14:51;30.75;;;19.98;;
39242;SDS011;29823;47.404;8.566;2022-08-19T00:17:20;35.25;;;19.55;;
39242;SDS011;29823;47.404;8.566;2022-08-19T00:19:48;25.08;;;17.25;;
39242;SDS011;29823;47.404;8.566;2022-08-19T00:22:16;25.67;;;18.30;;
39242;SDS011;29823;47.404;8.566;2022-08-19T00:24:44;27.98;;;16.95;;
39242;SDS011;29823;47.404;8.566;2022-08-19T00:27:17;26.20;;;16.50;;
39242;SDS011;29823;47.404;8.566;2022-08-19T00:29:51;25.58;;;16.67;;
39242;SDS011;29823;47.404;8.566;2022-08-19T00:32:19;22.88;;;15.82;;
39242;SDS011;29823;47.404;8.566;2022-08-19T00:34:49;26.05;;;16.40;;
39242;SDS011;29823;47.404;8.566;2022-08-19T00:37:19;23.75;;;15.77;;
39242;SDS011;29823;47.404;8.566;2022-08-19T00:39:49;23.48;;;16.05;;
39242;SDS011;29823;47.404;8.566;2022-08-19T00:42:19;24.52;;;16.23;;
39242;SDS011;29823;47.404;8.566;2022-08-19T00:44:48;24.77;;;16.90;;
39242;SDS011;29823;47.404;8.566;2022-08-19T00:47:16;23.88;;;15.80;;
39242;SDS011;29823;47.404;8.566;2022-08-19T00:49:45;22.70;;;16.40;;
39242;SDS011;29823;47.404;8.566;2022-08-19T00:52:19;22.98;;;16.10;;
39242;SDS011;29823;47.404;8.566;2022-08-19T00:57:23;25.63;;;15.77;;
39242;SDS011;29823;47.404;8.566;2022-08-19T00:59:55;23.30;;;16.58;;
39242;SDS011;29823;47.404;8.566;2022-08-19T01:02:28;25.70;;;16.23;;
39242;SDS011;29823;47.404;8.566;2022-08-19T01:04:59;27.58;;;16.35;;
39242;SDS011;29823;47.404;8.566;2022-08-19T01:07:29;22.92;;;15.85;;
39242;SDS011;29823;47.404;8.566;2022-08-19T01:10:04;29.60;;;17.30;;
39242;SDS011;29823;47.404;8.566;2022-08-19T01:12:35;27.50;;;16.70;;
39242;SDS011;29823;47.404;8.566;2022-08-19T01:15:04;26.10;;;17.15;;
39242;SDS011;29823;47.404;8.566;2022-08-19T01:17:36;29.20;;;18.00;;
39242;SDS011;29823;47.404;8.566;2022-08-19T01:20:07;34.97;;;19.52;;
39242;SDS011;29823;47.404;8.566;2022-08-19T01:22:40;35.53;;;20.08;;
39242;SDS011;29823;47.404;8.566;2022-08-19T01:25:12;32.08;;;18.85;;
39242;SDS011;29823;47.404;8.566;2022-08-19T01:27:43;33.55;;;20.98;;
39242;SDS011;29823;47.404;8.566;2022-08-19T01:32:43;36.78;;;19.48;;
39242;SDS011;29823;47.404;8.566;2022-08-19T01:35:11;40.60;;;22.02;;
39242;SDS011;29823;47.404;8.566;2022-08-19T01:37:46;41.70;;;21.45;;
39242;SDS011;29823;47.404;8.566;2022-08-19T01:40:18;37.65;;;21.30;;
39242;SDS011;29823;47.404;8.566;2022-08-19T01:42:48;35.08;;;19.33;;
39242;SDS011;29823;47.404;8.566;2022-08-19T01:45:16;39.08;;;19.92;;
39242;SDS011;29823;47.404;8.566;2022-08-19T01:47:44;33.53;;;19.45;;
39242;SDS011;29823;47.404;8.566;2022-08-19T01:50:28;31.83;;;18.55;;
39242;SDS011;29823;47.404;8.566;2022-08-19T01:52:58;34.15;;;18.80;;
39242;SDS011;29823;47.404;8.566;2022-08-19T01:55:33;33.50;;;19.02;;
39242;SDS011;29823;47.404;8.566;2022-08-19T01:58:07;35.47;;;20.50;;
39242;SDS011;29823;47.404;8.566;2022-08-19T02:00:38;35.95;;;19.75;;
39242;SDS011;29823;47.404;8.566;2022-08-19T02:03:06;37.55;;;19.58;;
39242;SDS011;29823;47.404;8.566;2022-08-19T02:05:35;39.60;;;20.48;;
39242;SDS011;29823;47.404;8.566;2022-08-19T02:08:05;41.08;;;21.63;;
39242;SDS011;29823;47.404;8.566;2022-08-19T02:10:33;44.08;;;22.73;;
39242;SDS011;29823;47.404;8.566;2022-08-19T02:13:05;41.13;;;22.65;;
39242;SDS011;29823;47.404;8.566;2022-08-19T02:15:33;42.10;;;22.42;;
39242;SDS011;29823;47.404;8.566;2022-08-19T02:18:01;39.88;;;22.40;;
39242;SDS011;29823;47.404;8.566;2022-08-19T02:20:29;42.85;;;22.75;;
39242;SDS011;29823;47.404;8.566;2022-08-19T02:22:56;36.90;;;21.58;;
39242;SDS011;29823;47.404;8.566;2022-08-19T02:25:26;55.70;;;22.35;;
39242;SDS011;29823;47.404;8.566;2022-08-19T02:27:54;40.03;;;21.80;;
39242;SDS011;29823;47.404;8.566;2022-08-19T02:30:21;37.35;;;21.77;;
39242;SDS011;29823;47.404;8.566;2022-08-19T02:32:50;44.08;;;24.10;;
39242;SDS011;29823;47.404;8.566;2022-08-19T02:35:18;40.97;;;23.77;;
39242;SDS011;29823;47.404;8.566;2022-08-19T02:37:47;46.90;;;24.55;;
39242;SDS011;29823;47.404;8.566;2022-08-19T02:40:34;43.53;;;23.60;;
39242;SDS011;29823;47.404;8.566;2022-08-19T02:43:02;41.55;;;23.20;;
39242;SDS011;29823;47.404;8.566;2022-08-19T02:45:33;41.80;;;23.63;;
39242;SDS011;29823;47.404;8.566;2022-08-19T02:48:05;45.45;;;24.17;;
39242;SDS011;29823;47.404;8.566;2022-08-19T02:50:47;41.13;;;23.35;;
39242;SDS011;29823;47.404;8.566;2022-08-19T02:53:19;41.40;;;23.08;;
39242;SDS011;29823;47.404;8.566;2022-08-19T02:55:49;39.00;;;23.42;;
39242;SDS011;29823;47.404;8.566;2022-08-19T02:58:18;44.78;;;25.08;;
39242;SDS011;29823;47.404;8.566;2022-08-19T03:00:47;43.60;;;24.38;;
39242;SDS011;29823;47.404;8.566;2022-08-19T03:03:17;50.22;;;25.70;;
39242;SDS011;29823;47.404;8.566;2022-08-19T03:05:45;50.13;;;26.60;;
39242;SDS011;29823;47.404;8.566;2022-08-19T03:08:22;49.65;;;26.17;;
39242;SDS011;29823;47.404;8.566;2022-08-19T03:10:52;46.35;;;25.15;;
39242;SDS011;29823;47.404;8.566;2022-08-19T03:13:20;48.90;;;26.67;;
39242;SDS011;29823;47.404;8.566;2022-08-19T03:15:49;51.08;;;27.80;;
39242;SDS011;29823;47.404;8.566;2022-08-19T03:18:17;58.85;;;29.38;;
39242;SDS011;29823;47.404;8.566;2022-08-19T03:20:50;51.75;;;28.33;;
39242;SDS011;29823;47.404;8.566;2022-08-19T03:23:20;49.10;;;28.23;;
39242;SDS011;29823;47.404;8.566;2022-08-19T03:25:50;54.15;;;27.65;;
39242;SDS011;29823;47.404;8.566;2022-08-19T03:28:29;52.80;;;28.95;;
39242;SDS011;29823;47.404;8.566;2022-08-19T03:30:57;49.20;;;27.17;;
39242;SDS011;29823;47.404;8.566;2022-08-19T03:33:26;55.47;;;27.00;;
39242;SDS011;29823;47.404;8.566;2022-08-19T03:36:03;52.17;;;28.30;;
39242;SDS011;29823;47.404;8.566;2022-08-19T03:38:33;53.30;;;27.83;;
39242;SDS011;29823;47.404;8.566;2022-08-19T03:41:07;50.72;;;29.25;;
39242;SDS011;29823;47.404;8.566;2022-08-19T03:43:37;57.35;;;29.48;;
39242;SDS011;29823;47.404;8.566;2022-08-19T03:46:06;63.10;;;30.27;;
39242;SDS011;29823;47.404;8.566;2022-08-19T03:48:37;56.60;;;30.67;;
39242;SDS011;29823;47.404;8.566;2022-08-19T03:51:06;63.20;;;30.45;;
39242;SDS011;29823;47.404;8.566;2022-08-19T03:53:34;60.95;;;31.52;;
39242;SDS011;29823;47.404;8.566;2022-08-19T03:56:03;60.33;;;29.63;;
39242;SDS011;29823;47.404;8.566;2022-08-19T03:58:32;58.13;;;30.15;;
39242;SDS011;29823;47.404;8.566;2022-08-19T04:01:00;55.85;;;31.02;;
39242;SDS011;29823;47.404;8.566;2022-08-19T04:03:28;72.18;;;32.78;;
39242;SDS011;29823;47.404;8.566;2022-08-19T04:05:56;59.97;;;31.90;;
39242;SDS011;29823;47.404;8.566;2022-08-19T04:08:23;70.05;;;32.72;;
39242;SDS011;29823;47.404;8.566;2022-08-19T04:10:51;69.38;;;34.75;;
39242;SDS011;29823;47.404;8.566;2022-08-19T04:13:20;67.43;;;34.95;;
39242;SDS011;29823;47.404;8.566;2022-08-19T04:15:49;65.82;;;35.92;;
39242;SDS011;29823;47.404;8.566;2022-08-19T04:18:17;72.00;;;35.35;;
39242;SDS011;29823;47.404;8.566;2022-08-19T04:20:46;67.68;;;35.42;;
39242;SDS011;29823;47.404;8.566;2022-08-19T04:23:15;66.50;;;34.35;;
39242;SDS011;29823;47.404;8.566;2022-08-19T04:25:44;74.20;;;37.28;;
39242;SDS011;29823;47.404;8.566;2022-08-19T04:28:12;71.85;;;36.90;;
39242;SDS011;29823;47.404;8.566;2022-08-19T04:30:41;67.75;;;35.20;;
39242;SDS011;29823;47.404;8.566;2022-08-19T04:33:12;64.32;;;34.97;;
39242;SDS011;29823;47.404;8.566;2022-08-19T04:35:44;70.97;;;36.13;;
39242;SDS011;29823;47.404;8.566;2022-08-19T04:38:14;70.32;;;35.92;;
39242;SDS011;29823;47.404;8.566;2022-08-19T04:40:44;72.90;;;36.47;;
39242;SDS011;29823;47.404;8.566;2022-08-19T04:43:33;70.97;;;36.70;;
39242;SDS011;29823;47.404;8.566;2022-08-19T04:46:04;74.97;;;37.75;;
39242;SDS011;29823;47.404;8.566;2022-08-19T04:48:34;78.63;;;38.10;;
39242;SDS011;29823;47.404;8.566;2022-08-19T04:51:10;78.18;;;38.33;;
39242;SDS011;29823;47.404;8.566;2022-08-19T04:53:40;64.53;;;34.40;;
39242;SDS011;29823;47.404;8.566;2022-08-19T04:56:10;61.45;;;35.00;;
39242;SDS011;29823;47.404;8.566;2022-08-19T04:58:40;60.10;;;36.10;;
39242;SDS011;29823;47.404;8.566;2022-08-19T05:01:09;57.30;;;32.42;;
39242;SDS011;29823;47.404;8.566;2022-08-19T05:03:40;53.70;;;32.03;;
39242;SDS011;29823;47.404;8.566;2022-08-19T05:06:09;53.65;;;31.40;;
39242;SDS011;29823;47.404;8.566;2022-08-19T05:08:40;49.05;;;29.50;;
39242;SDS011;29823;47.404;8.566;2022-08-19T05:11:10;49.05;;;29.55;;
39242;SDS011;29823;47.404;8.566;2022-08-19T05:13:40;45.88;;;27.95;;
39242;SDS011;29823;47.404;8.566;2022-08-19T05:16:09;44.08;;;27.40;;
39242;SDS011;29823;47.404;8.566;2022-08-19T05:18:38;42.85;;;26.40;;
39242;SDS011;29823;47.404;8.566;2022-08-19T05:21:25;37.67;;;25.52;;
39242;SDS011;29823;47.404;8.566;2022-08-19T05:24:11;45.20;;;26.08;;
39242;SDS011;29823;47.404;8.566;2022-08-19T05:26:41;29.52;;;22.10;;
39242;SDS011;29823;47.404;8.566;2022-08-19T05:29:11;31.20;;;22.05;;
39242;SDS011;29823;47.404;8.566;2022-08-19T05:31:41;33.20;;;22.58;;
39242;SDS011;29823;47.404;8.566;2022-08-19T05:34:10;34.60;;;22.17;;
39242;SDS011;29823;47.404;8.566;2022-08-19T05:36:46;29.98;;;21.52;;
39242;SDS011;29823;47.404;8.566;2022-08-19T05:39:16;29.85;;;20.73;;
39242;SDS011;29823;47.404;8.566;2022-08-19T05:41:46;29.95;;;20.75;;
39242;SDS011;29823;47.404;8.566;2022-08-19T05:44:15;28.45;;;20.77;;
39242;SDS011;29823;47.404;8.566;2022-08-19T05:46:44;30.70;;;20.17;;
39242;SDS011;29823;47.404;8.566;2022-08-19T05:49:15;28.98;;;21.17;;
39242;SDS011;29823;47.404;8.566;2022-08-19T05:51:43;29.38;;;21.85;;
39242;SDS011;29823;47.404;8.566;2022-08-19T05:54:11;30.35;;;20.90;;
39242;SDS011;29823;47.404;8.566;2022-08-19T05:56:39;30.10;;;21.58;;
39242;SDS011;29823;47.404;8.566;2022-08-19T05:59:09;26.75;;;19.20;;
39242;SDS011;29823;47.404;8.566;2022-08-19T06:01:38;26.48;;;18.67;;
39242;SDS011;29823;47.404;8.566;2022-08-19T06:04:07;27.98;;;20.08;;
39242;SDS011;29823;47.404;8.566;2022-08-19T06:06:36;28.83;;;20.40;;
39242;SDS011;29823;47.404;8.566;2022-08-19T06:09:05;25.88;;;19.40;;
39242;SDS011;29823;47.404;8.566;2022-08-19T06:11:34;30.90;;;21.20;;
39242;SDS011;29823;47.404;8.566;2022-08-19T06:14:04;29.55;;;20.85;;
39242;SDS011;29823;47.404;8.566;2022-08-19T06:16:42;32.40;;;23.05;;
39242;SDS011;29823;47.404;8.566;2022-08-19T06:19:12;25.95;;;18.90;;
39242;SDS011;29823;47.404;8.566;2022-08-19T06:21:44;27.10;;;19.65;;
39242;SDS011;29823;47.404;8.566;2022-08-19T06:24:14;24.80;;;18.65;;
39242;SDS011;29823;47.404;8.566;2022-08-19T06:26:45;27.63;;;19.90;;
39242;SDS011;29823;47.404;8.566;2022-08-19T06:29:20;27.02;;;19.40;;
39242;SDS011;29823;47.404;8.566;2022-08-19T06:31:51;26.83;;;19.38;;
39242;SDS011;29823;47.404;8.566;2022-08-19T06:34:22;28.23;;;19.65;;
39242;SDS011;29823;47.404;8.566;2022-08-19T06:36:52;31.65;;;21.23;;
39242;SDS011;29823;47.404;8.566;2022-08-19T06:39:23;26.98;;;20.60;;
39242;SDS011;29823;47.404;8.566;2022-08-19T06:41:53;24.60;;;18.48;;
39242;SDS011;29823;47.404;8.566;2022-08-19T06:44:25;25.38;;;20.10;;
39242;SDS011;29823;47.404;8.566;2022-08-19T06:46:57;26.05;;;19.48;;
39242;SDS011;29823;47.404;8.566;2022-08-19T06:49:25;28.42;;;19.48;;
39242;SDS011;29823;47.404;8.566;2022-08-19T06:51:59;29.60;;;19.10;;
39242;SDS011;29823;47.404;8.566;2022-08-19T06:54:28;25.55;;;20.08;;
39242;SDS011;29823;47.404;8.566;2022-08-19T06:56:56;30.92;;;20.63;;
39242;SDS011;29823;47.404;8.566;2022-08-19T06:59:24;26.95;;;20.63;;
39242;SDS011;29823;47.404;8.566;2022-08-19T07:01:55;28.20;;;19.75;;
39242;SDS011;29823;47.404;8.566;2022-08-19T07:04:25;30.20;;;21.25;;
39242;SDS011;29823;47.404;8.566;2022-08-19T07:06:56;31.92;;;22.50;;
39242;SDS011;29823;47.404;8.566;2022-08-19T07:09:45;25.80;;;20.35;;
39242;SDS011;29823;47.404;8.566;2022-08-19T07:12:25;26.70;;;19.92;;
39242;SDS011;29823;47.404;8.566;2022-08-19T07:14:56;29.15;;;20.77;;
39242;SDS011;29823;47.404;8.566;2022-08-19T07:17:24;32.22;;;24.48;;
39242;SDS011;29823;47.404;8.566;2022-08-19T07:19:53;29.58;;;22.15;;
39242;SDS011;29823;47.404;8.566;2022-08-19T07:22:22;27.48;;;20.60;;
39242;SDS011;29823;47.404;8.566;2022-08-19T07:24:51;26.38;;;20.33;;
39242;SDS011;29823;47.404;8.566;2022-08-19T07:27:19;25.45;;;19.73;;
39242;SDS011;29823;47.404;8.566;2022-08-19T07:29:51;25.00;;;19.05;;
39242;SDS011;29823;47.404;8.566;2022-08-19T07:32:21;24.17;;;18.75;;
39242;SDS011;29823;47.404;8.566;2022-08-19T07:34:50;22.75;;;18.23;;
39242;SDS011;29823;47.404;8.566;2022-08-19T07:37:18;22.83;;;18.98;;
39242;SDS011;29823;47.404;8.566;2022-08-19T07:39:47;28.75;;;20.15;;
39242;SDS011;29823;47.404;8.566;2022-08-19T07:42:15;30.60;;;21.23;;
39242;SDS011;29823;47.404;8.566;2022-08-19T07:44:44;27.70;;;20.40;;
39242;SDS011;29823;47.404;8.566;2022-08-19T07:50:05;29.88;;;21.42;;
39242;SDS011;29823;47.404;8.566;2022-08-19T07:52:35;33.03;;;22.33;;
39242;SDS011;29823;47.404;8.566;2022-08-19T07:55:07;27.02;;;21.42;;
39242;SDS011;29823;47.404;8.566;2022-08-19T07:57:57;28.63;;;22.70;;
39242;SDS011;29823;47.404;8.566;2022-08-19T08:00:25;33.65;;;22.33;;
39242;SDS011;29823;47.404;8.566;2022-08-19T08:02:53;29.70;;;22.73;;
39242;SDS011;29823;47.404;8.566;2022-08-19T08:05:21;31.38;;;22.70;;
39242;SDS011;29823;47.404;8.566;2022-08-19T08:08:09;36.88;;;24.42;;
39242;SDS011;29823;47.404;8.566;2022-08-19T08:10:56;32.42;;;23.48;;
39242;SDS011;29823;47.404;8.566;2022-08-19T08:13:24;34.75;;;25.45;;
39242;SDS011;29823;47.404;8.566;2022-08-19T08:15:52;33.35;;;24.75;;
39242;SDS011;29823;47.404;8.566;2022-08-19T08:18:21;39.95;;;27.27;;
39242;SDS011;29823;47.404;8.566;2022-08-19T08:20:56;37.65;;;24.90;;
39242;SDS011;29823;47.404;8.566;2022-08-19T08:23:25;40.70;;;26.60;;
39242;SDS011;29823;47.404;8.566;2022-08-19T08:25:54;40.92;;;26.92;;
39242;SDS011;29823;47.404;8.566;2022-08-19T08:28:24;50.75;;;27.73;;
39242;SDS011;29823;47.404;8.566;2022-08-19T08:30:55;44.67;;;26.85;;
39242;SDS011;29823;47.404;8.566;2022-08-19T08:33:24;42.45;;;28.77;;
39242;SDS011;29823;47.404;8.566;2022-08-19T08:36:00;42.42;;;28.27;;
39242;SDS011;29823;47.404;8.566;2022-08-19T08:38:29;43.92;;;28.10;;
39242;SDS011;29823;47.404;8.566;2022-08-19T08:41:08;52.05;;;30.30;;
39242;SDS011;29823;47.404;8.566;2022-08-19T08:43:46;49.95;;;30.30;;
39242;SDS011;29823;47.404;8.566;2022-08-19T08:46:18;45.75;;;28.95;;
39242;SDS011;29823;47.404;8.566;2022-08-19T08:48:59;49.25;;;31.05;;
39242;SDS011;29823;47.404;8.566;2022-08-19T08:51:34;58.42;;;32.35;;
39242;SDS011;29823;47.404;8.566;2022-08-19T08:54:11;55.35;;;32.95;;
39242;SDS011;29823;47.404;8.566;2022-08-19T08:56:41;60.20;;;34.75;;
39242;SDS011;29823;47.404;8.566;2022-08-19T08:59:13;53.85;;;33.70;;
39242;SDS011;29823;47.404;8.566;2022-08-19T09:01:46;54.90;;;33.92;;
39242;SDS011;29823;47.404;8.566;2022-08-19T09:04:15;59.22;;;35.13;;
39242;SDS011;29823;47.404;8.566;2022-08-19T09:06:46;63.30;;;34.65;;
39242;SDS011;29823;47.404;8.566;2022-08-19T09:09:20;57.75;;;35.78;;
39242;SDS011;29823;47.404;8.566;2022-08-19T09:12:05;66.00;;;36.55;;
39242;SDS011;29823;47.404;8.566;2022-08-19T09:14:39;68.70;;;37.85;;
39242;SDS011;29823;47.404;8.566;2022-08-19T09:17:17;75.68;;;40.13;;
39242;SDS011;29823;47.404;8.566;2022-08-19T09:19:57;68.00;;;38.55;;
39242;SDS011;29823;47.404;8.566;2022-08-19T09:22:34;71.18;;;39.42;;
39242;SDS011;29823;47.404;8.566;2022-08-19T09:25:03;70.75;;;38.80;;
39242;SDS011;29823;47.404;8.566;2022-08-19T09:27:34;104.18;;;56.33;;
39242;SDS011;29823;47.404;8.566;2022-08-19T09:30:09;73.85;;;41.17;;
39242;SDS011;29823;47.404;8.566;2022-08-19T09:32:41;81.22;;;43.35;;
39242;SDS011;29823;47.404;8.566;2022-08-19T09:35:09;80.13;;;42.90;;
39242;SDS011;29823;47.404;8.566;2022-08-19T09:37:38;80.43;;;43.25;;
39242;SDS011;29823;47.404;8.566;2022-08-19T09:40:09;73.70;;;41.88;;
39242;SDS011;29823;47.404;8.566;2022-08-19T09:42:39;73.57;;;40.97;;
39242;SDS011;29823;47.404;8.566;2022-08-19T09:45:19;75.40;;;42.22;;
39242;SDS011;29823;47.404;8.566;2022-08-19T09:47:49;80.90;;;42.80;;
39242;SDS011;29823;47.404;8.566;2022-08-19T09:50:20;69.70;;;41.58;;
39242;SDS011;29823;47.404;8.566;2022-08-19T09:53:37;77.50;;;43.10;;
39242;SDS011;29823;47.404;8.566;2022-08-19T09:56:31;74.82;;;41.83;;
39242;SDS011;29823;47.404;8.566;2022-08-19T09:59:08;74.15;;;40.35;;
39242;SDS011;29823;47.404;8.566;2022-08-19T10:01:58;72.40;;;40.15;;
39242;SDS011;29823;47.404;8.566;2022-08-19T10:04:36;73.57;;;40.92;;
39242;SDS011;29823;47.404;8.566;2022-08-19T10:07:20;83.68;;;43.83;;
39242;SDS011;29823;47.404;8.566;2022-08-19T10:10:01;87.15;;;44.17;;
39242;SDS011;29823;47.404;8.566;2022-08-19T10:13:08;91.38;;;44.40;;
39242;SDS011;29823;47.404;8.566;2022-08-19T10:15:37;77.20;;;43.50;;
39242;SDS011;29823;47.404;8.566;2022-08-19T10:18:14;79.32;;;43.22;;
39242;SDS011;29823;47.404;8.566;2022-08-19T10:20:44;84.18;;;43.90;;
39242;SDS011;29823;47.404;8.566;2022-08-19T10:23:17;91.25;;;46.17;;
39242;SDS011;29823;47.404;8.566;2022-08-19T10:25:46;88.68;;;44.15;;
39242;SDS011;29823;47.404;8.566;2022-08-19T10:28:14;85.47;;;45.10;;
39242;SDS011;29823;47.404;8.566;2022-08-19T10:30:46;90.35;;;45.05;;
39242;SDS011;29823;47.404;8.566;2022-08-19T10:33:14;83.22;;;44.45;;
39242;SDS011;29823;47.404;8.566;2022-08-19T10:36:03;87.60;;;44.80;;
39242;SDS011;29823;47.404;8.566;2022-08-19T10:38:33;87.60;;;42.90;;
39242;SDS011;29823;47.404;8.566;2022-08-19T10:41:08;86.63;;;45.65;;
39242;SDS011;29823;47.404;8.566;2022-08-19T10:43:38;83.05;;;44.58;;
39242;SDS011;29823;47.404;8.566;2022-08-19T10:46:09;86.40;;;45.30;;
39242;SDS011;29823;47.404;8.566;2022-08-19T10:51:07;96.85;;;48.58;;
39242;SDS011;29823;47.404;8.566;2022-08-19T10:53:54;95.93;;;46.20;;
39242;SDS011;29823;47.404;8.566;2022-08-19T10:56:22;94.32;;;47.63;;
39242;SDS011;29823;47.404;8.566;2022-08-19T10:59:08;90.18;;;46.38;;
39242;SDS011;29823;47.404;8.566;2022-08-19T11:01:37;85.93;;;46.42;;
39242;SDS011;29823;47.404;8.566;2022-08-19T11:04:05;88.43;;;47.05;;
39242;SDS011;29823;47.404;8.566;2022-08-19T11:06:35;93.93;;;45.63;;
39242;SDS011;29823;47.404;8.566;2022-08-19T11:09:04;89.82;;;48.00;;
39242;SDS011;29823;47.404;8.566;2022-08-19T11:11:32;84.75;;;46.85;;
39242;SDS011;29823;47.404;8.566;2022-08-19T11:14:07;83.30;;;45.67;;
39242;SDS011;29823;47.404;8.566;2022-08-19T11:16:37;81.50;;;44.75;;
39242;SDS011;29823;47.404;8.566;2022-08-19T11:19:06;92.03;;;46.17;;
39242;SDS011;29823;47.404;8.566;2022-08-19T11:21:35;83.55;;;45.53;;
39242;SDS011;29823;47.404;8.566;2022-08-19T11:24:06;86.70;;;45.75;;
39242;SDS011;29823;47.404;8.566;2022-08-19T11:26:35;84.38;;;45.22;;
39242;SDS011;29823;47.404;8.566;2022-08-19T11:29:05;84.32;;;45.80;;
39242;SDS011;29823;47.404;8.566;2022-08-19T11:31:39;91.18;;;46.65;;
39242;SDS011;29823;47.404;8.566;2022-08-19T11:34:10;91.38;;;46.13;;
39242;SDS011;29823;47.404;8.566;2022-08-19T11:36:41;88.63;;;47.00;;
39242;SDS011;29823;47.404;8.566;2022-08-19T11:39:11;88.13;;;47.00;;
39242;SDS011;29823;47.404;8.566;2022-08-19T11:41:40;96.13;;;46.95;;
39242;SDS011;29823;47.404;8.566;2022-08-19T11:44:08;83.63;;;45.28;;
39242;SDS011;29823;47.404;8.566;2022-08-19T11:46:37;78.03;;;45.78;;
39242;SDS011;29823;47.404;8.566;2022-08-19T11:49:06;86.75;;;47.67;;
39242;SDS011;29823;47.404;8.566;2022-08-19T11:51:39;85.07;;;46.72;;
39242;SDS011;29823;47.404;8.566;2022-08-19T11:54:09;92.80;;;46.55;;
39242;SDS011;29823;47.404;8.566;2022-08-19T11:56:39;85.28;;;46.90;;
39242;SDS011;29823;47.404;8.566;2022-08-19T11:59:07;78.80;;;44.03;;
39242;SDS011;29823;47.404;8.566;2022-08-19T12:01:41;79.38;;;44.40;;
39242;SDS011;29823;47.404;8.566;2022-08-19T12:04:09;85.63;;;45.13;;
39242;SDS011;29823;47.404;8.566;2022-08-19T12:06:38;83.13;;;43.35;;
39242;SDS011;29823;47.404;8.566;2022-08-19T12:09:08;82.80;;;44.22;;
39242;SDS011;29823;47.404;8.566;2022-08-19T12:11:37;80.88;;;43.17;;
39242;SDS011;29823;47.404;8.566;2022-08-19T12:14:08;95.38;;;55.50;;
39242;SDS011;29823;47.404;8.566;2022-08-19T12:16:40;72.25;;;41.40;;
39242;SDS011;29823;47.404;8.566;2022-08-19T12:19:16;70.70;;;41.30;;
39242;SDS011;29823;47.404;8.566;2022-08-19T12:21:48;73.30;;;43.63;;
39242;SDS011;29823;47.404;8.566;2022-08-19T12:24:16;69.00;;;42.08;;
39242;SDS011;29823;47.404;8.566;2022-08-19T12:26:49;65.35;;;38.85;;
39242;SDS011;29823;47.404;8.566;2022-08-19T12:29:19;71.50;;;40.63;;
39242;SDS011;29823;47.404;8.566;2022-08-19T12:31:50;74.00;;;44.60;;
39242;SDS011;29823;47.404;8.566;2022-08-19T12:34:19;75.93;;;43.22;;
39242;SDS011;29823;47.404;8.566;2022-08-19T12:36:46;71.50;;;40.92;;
39242;SDS011;29823;47.404;8.566;2022-08-19T12:39:15;65.43;;;40.67;;
39242;SDS011;29823;47.404;8.566;2022-08-19T12:41:43;67.43;;;40.40;;
39242;SDS011;29823;47.404;8.566;2022-08-19T12:44:20;70.65;;;42.13;;
39242;SDS011;29823;47.404;8.566;2022-08-19T12:46:56;67.60;;;42.45;;
39242;SDS011;29823;47.404;8.566;2022-08-19T12:49:24;61.03;;;38.67;;
39242;SDS011;29823;47.404;8.566;2022-08-19T12:52:12;59.15;;;37.25;;
39242;SDS011;29823;47.404;8.566;2022-08-19T12:54:48;52.42;;;35.10;;
39242;SDS011;29823;47.404;8.566;2022-08-19T12:57:20;56.60;;;36.85;;
39242;SDS011;29823;47.404;8.566;2022-08-19T12:59:57;53.78;;;35.13;;
39242;SDS011;29823;47.404;8.566;2022-08-19T13:02:27;54.58;;;36.33;;
39242;SDS011;29823;47.404;8.566;2022-08-19T13:04:54;61.63;;;36.63;;
39242;SDS011;29823;47.404;8.566;2022-08-19T13:07:23;47.65;;;34.10;;
39242;SDS011;29823;47.404;8.566;2022-08-19T13:09:50;50.05;;;34.85;;
39242;SDS011;29823;47.404;8.566;2022-08-19T13:12:18;48.10;;;33.85;;
39242;SDS011;29823;47.404;8.566;2022-08-19T13:14:50;55.22;;;36.38;;
39242;SDS011;29823;47.404;8.566;2022-08-19T13:17:18;54.45;;;36.53;;
39242;SDS011;29823;47.404;8.566;2022-08-19T13:19:47;52.22;;;36.65;;
39242;SDS011;29823;47.404;8.566;2022-08-19T13:22:15;55.65;;;37.35;;
39242;SDS011;29823;47.404;8.566;2022-08-19T13:24:43;51.20;;;35.55;;
39242;SDS011;29823;47.404;8.566;2022-08-19T13:27:12;49.28;;;35.10;;
39242;SDS011;29823;47.404;8.566;2022-08-19T13:29:41;49.53;;;34.53;;
39242;SDS011;29823;47.404;8.566;2022-08-19T13:32:26;45.60;;;31.73;;
39242;SDS011;29823;47.404;8.566;2022-08-19T13:35:15;50.35;;;34.85;;
39242;SDS011;29823;47.404;8.566;2022-08-19T13:37:43;45.88;;;34.08;;
39242;SDS011;29823;47.404;8.566;2022-08-19T13:40:12;49.25;;;33.80;;
39242;SDS011;29823;47.404;8.566;2022-08-19T13:42:45;49.80;;;33.63;;
39242;SDS011;29823;47.404;8.566;2022-08-19T13:45:15;50.78;;;34.45;;
39242;SDS011;29823;47.404;8.566;2022-08-19T13:47:44;45.80;;;32.97;;
39242;SDS011;29823;47.404;8.566;2022-08-19T13:50:14;52.65;;;33.22;;
39242;SDS011;29823;47.404;8.566;2022-08-19T13:52:44;47.97;;;34.08;;
39242;SDS011;29823;47.404;8.566;2022-08-19T13:55:14;47.90;;;32.28;;
39242;SDS011;29823;47.404;8.566;2022-08-19T13:57:50;45.85;;;32.58;;
39242;SDS011;29823;47.404;8.566;2022-08-19T14:00:19;48.08;;;32.28;;
39242;SDS011;29823;47.404;8.566;2022-08-19T14:02:49;51.60;;;33.58;;
39242;SDS011;29823;47.404;8.566;2022-08-19T14:05:20;45.67;;;31.25;;
39242;SDS011;29823;47.404;8.566;2022-08-19T14:07:48;42.17;;;30.25;;
39242;SDS011;29823;47.404;8.566;2022-08-19T14:10:17;43.45;;;31.58;;
39242;SDS011;29823;47.404;8.566;2022-08-19T14:12:46;41.78;;;30.52;;
39242;SDS011;29823;47.404;8.566;2022-08-19T14:15:14;41.88;;;30.58;;
39242;SDS011;29823;47.404;8.566;2022-08-19T14:17:43;44.30;;;29.50;;
39242;SDS011;29823;47.404;8.566;2022-08-19T14:20:14;39.67;;;29.45;;
39242;SDS011;29823;47.404;8.566;2022-08-19T14:22:46;40.03;;;29.98;;
39242;SDS011;29823;47.404;8.566;2022-08-19T14:25:14;39.88;;;29.23;;
39242;SDS011;29823;47.404;8.566;2022-08-19T14:27:44;38.83;;;30.25;;
39242;SDS011;29823;47.404;8.566;2022-08-19T14:30:13;42.70;;;30.88;;
39242;SDS011;29823;47.404;8.566;2022-08-19T14:32:44;43.83;;;31.63;;
39242;SDS011;29823;47.404;8.566;2022-08-19T14:35:12;39.67;;;29.92;;
39242;SDS011;29823;47.404;8.566;2022-08-19T14:37:41;42.83;;;29.92;;
39242;SDS011;29823;47.404;8.566;2022-08-19T14:40:13;39.63;;;28.75;;
39242;SDS011;29823;47.404;8.566;2022-08-19T14:42:43;40.88;;;29.35;;
39242;SDS011;29823;47.404;8.566;2022-08-19T14:45:11;40.05;;;28.25;;
39242;SDS011;29823;47.404;8.566;2022-08-19T14:47:39;39.78;;;29.80;;
39242;SDS011;29823;47.404;8.566;2022-08-19T14:50:10;37.15;;;27.17;;
39242;SDS011;29823;47.404;8.566;2022-08-19T14:52:43;38.28;;;28.80;;
39242;SDS011;29823;47.404;8.566;2022-08-19T14:55:13;39.28;;;29.58;;